KLWB/LWB METAR and TAF weather

Enter ICAO airport designator
Station Type Date Time Source
KLWB METAR 2020/07/15 01:55 UTC NOAA

KLWB 150155Z AUTO 01003KT 10SM CLR 20/17 A3017 RMK AO2 T01950169


Station Type Date Time Source
KLWB Decoded METAR 2020/07/15 01:55 UTC NOAA

Lewisburg / Greenbrier, WV, United States (KLWB) 37-52N 080-24W
Jul 14, 2020 - 09:55 PM EDT / 2020.07.15 0155 UTC
Wind: from the N (010 degrees) at 3 MPH (3 KT):0
Visibility: 10 mile(s):0
Sky conditions: clear
Temperature: 67.1 F (19.5 C)
Dew Point: 62.4 F (16.9 C)
Relative Humidity: 84%
Pressure (altimeter): 30.17 in. Hg (1021 hPa)
ob: KLWB 150155Z AUTO 01003KT 10SM CLR 20/17 A3017 RMK AO2 T01950169
cycle: 2

Station Type Date Time Source
KLWB TAF 2020/07/14 18:45 UTC NOAA

TAF KLWB 141735Z 1418/1518 VRB03KT P6SM SCT050
FM151000 00000KT 3SM BR FEW002
FM151300 VRB03KT P6SM FEW045

Example: see airport list